createdAt,value
2022-09-07T00:00:58.044Z,69.30
2022-09-07T00:03:24.676Z,70.80
2022-09-07T00:05:52.316Z,72.75
2022-09-07T00:08:22.019Z,74.90
2022-09-07T00:10:54.096Z,76.38
2022-09-07T00:13:21.294Z,76.63
2022-09-07T00:15:47.795Z,77.65
2022-09-07T00:18:14.325Z,78.23
2022-09-07T00:20:41.685Z,77.97
2022-09-07T00:23:08.142Z,76.94
2022-09-07T00:25:39.263Z,77.85
2022-09-07T00:28:07.701Z,76.81
2022-09-07T00:30:35.081Z,76.63
2022-09-07T00:33:01.527Z,76.26
2022-09-07T00:35:28.007Z,75.88
2022-09-07T00:37:54.457Z,75.71
2022-09-07T00:40:20.888Z,76.48
2022-09-07T00:42:47.394Z,77.11
2022-09-07T00:45:17.639Z,77.27
2022-09-07T00:48:03.205Z,76.70
2022-09-07T00:50:35.304Z,77.19
2022-09-07T00:53:08.916Z,76.87
2022-09-07T00:55:37.988Z,76.35
2022-09-07T00:58:06.059Z,76.46
2022-09-07T01:00:33.157Z,76.55
2022-09-07T01:04:01.658Z,76.32
2022-09-07T01:10:40.374Z,79.64
2022-09-07T01:13:06.883Z,78.27
2022-09-07T01:15:51.343Z,78.51
2022-09-07T01:18:25.999Z,78.00
2022-09-07T01:21:25.358Z,76.43
2022-09-07T01:24:19.757Z,77.45
2022-09-07T01:31:22.422Z,78.87
2022-09-07T01:34:06.504Z,78.18
2022-09-07T01:36:50.432Z,77.65
2022-09-07T01:39:21.910Z,78.46
2022-09-07T01:41:58.425Z,79.40
2022-09-07T01:44:27.806Z,78.78
2022-09-07T01:47:08.688Z,78.60
2022-09-07T01:53:58.549Z,79.68
2022-09-07T01:56:35.001Z,80.27
2022-09-07T01:59:10.466Z,80.85
2022-09-07T02:01:46.398Z,80.70
2022-09-07T02:04:39.067Z,80.21
2022-09-07T02:07:20.862Z,80.44
2022-09-07T02:09:56.702Z,80.34
2022-09-07T02:12:42.154Z,80.04
2022-09-07T02:15:18.310Z,80.21
2022-09-07T02:17:51.827Z,80.20
2022-09-07T02:20:33.141Z,80.32
2022-09-07T02:23:02.674Z,79.65
2022-09-07T02:25:37.814Z,79.78
2022-09-07T02:28:09.220Z,80.72
2022-09-07T02:30:36.057Z,81.32
2022-09-07T02:33:02.604Z,80.59
2022-09-07T02:35:29.291Z,81.24
2022-09-07T02:37:56.751Z,81.10
2022-09-07T02:40:23.256Z,80.95
2022-09-07T02:42:50.324Z,80.53
2022-09-07T02:45:17.739Z,79.91
2022-09-07T02:48:10.542Z,80.38
2022-09-07T02:50:49.867Z,80.80
2022-09-07T02:53:28.333Z,80.44
2022-09-07T02:56:07.775Z,80.37
2022-09-07T02:58:49.142Z,80.40
2022-09-07T03:01:21.334Z,80.32
2022-09-07T03:04:01.708Z,80.67
2022-09-07T03:06:42.990Z,80.44
2022-09-07T03:09:19.607Z,80.34
2022-09-07T03:11:46.706Z,79.82
2022-09-07T03:14:22.871Z,79.55
2022-09-07T03:16:51.738Z,80.55
2022-09-07T03:19:18.520Z,80.75
2022-09-07T03:21:45.394Z,80.11
2022-09-07T03:24:11.863Z,80.48
2022-09-07T03:26:41.636Z,80.46
2022-09-07T03:29:08.181Z,80.86
2022-09-07T03:31:34.836Z,80.91
2022-09-07T03:34:01.498Z,80.78
2022-09-07T03:36:30.270Z,80.80
2022-09-07T03:38:58.657Z,80.49
2022-09-07T03:41:26.283Z,81.02
2022-09-07T03:43:53.246Z,81.54
2022-09-07T03:46:20.031Z,81.37
2022-09-07T03:48:47.825Z,81.16
2022-09-07T03:51:16.208Z,81.58
2022-09-07T03:53:44.818Z,81.00
2022-09-07T03:56:20.677Z,80.71
2022-09-07T03:58:49.710Z,80.59
2022-09-07T04:01:20.420Z,80.16
2022-09-07T04:03:48.029Z,79.95
2022-09-07T04:06:15.349Z,80.39
2022-09-07T04:08:42.849Z,80.60
2022-09-07T04:11:13.333Z,80.19
2022-09-07T04:13:40.773Z,80.66
2022-09-07T04:16:20.674Z,80.63
2022-09-07T04:18:50.199Z,80.74
2022-09-07T04:21:17.433Z,81.21
2022-09-07T04:23:44.601Z,81.05
2022-09-07T04:26:17.939Z,81.25
2022-09-07T04:28:45.450Z,81.37
2022-09-07T04:31:13.644Z,81.86
2022-09-07T04:33:40.195Z,81.41
2022-09-07T04:36:06.931Z,81.16
2022-09-07T04:38:33.493Z,80.94
2022-09-07T04:41:02.289Z,80.82
2022-09-07T04:43:29.834Z,81.07
2022-09-07T04:45:56.484Z,81.10
2022-09-07T04:48:22.948Z,81.03
2022-09-07T04:50:49.399Z,80.75
2022-09-07T04:53:15.870Z,81.17
2022-09-07T04:55:42.284Z,81.55
2022-09-07T04:58:08.718Z,81.04
2022-09-07T05:00:35.737Z,80.63
2022-09-07T05:03:02.176Z,80.89
2022-09-07T05:05:28.639Z,80.81
2022-09-07T05:07:55.066Z,80.75
2022-09-07T05:10:21.676Z,81.02
2022-09-07T05:12:48.141Z,81.45
2022-09-07T05:15:14.709Z,81.22
2022-09-07T05:17:41.128Z,80.93
2022-09-07T05:20:07.854Z,80.76
2022-09-07T05:22:35.580Z,80.60
2022-09-07T05:25:02.256Z,81.13
2022-09-07T05:27:28.731Z,81.20
2022-09-07T05:32:25.060Z,80.85
2022-09-07T05:34:53.071Z,80.34
2022-09-07T05:37:19.661Z,81.29
2022-09-07T05:39:46.176Z,82.52
2022-09-07T05:42:12.683Z,83.03
2022-09-07T05:47:08.869Z,83.41
2022-09-07T05:49:35.305Z,82.69
2022-09-07T05:52:01.908Z,80.90
2022-09-07T05:54:28.349Z,80.68
2022-09-07T05:56:54.864Z,79.89
2022-09-07T05:59:21.294Z,76.11
2022-09-07T06:01:47.747Z,74.28
2022-09-07T06:04:14.485Z,72.39
2022-09-07T06:06:40.925Z,69.92
2022-09-07T06:09:07.908Z,68.63
2022-09-07T06:11:34.417Z,67.65
2022-09-07T06:14:00.885Z,66.83
2022-09-07T06:16:27.468Z,65.34
2022-09-07T06:18:54.516Z,66.58
2022-09-07T06:21:23.525Z,66.07
2022-09-07T06:23:51.284Z,64.06
2022-09-07T06:26:19.375Z,62.08
2022-09-07T06:28:49.848Z,61.60
2022-09-07T06:31:22.913Z,61.12
2022-09-07T06:33:50.790Z,60.74
2022-09-07T06:36:19.399Z,58.89
2022-09-07T06:38:47.000Z,58.44
2022-09-07T06:44:19.843Z,59.27
2022-09-07T06:49:28.160Z,57.53
2022-09-07T06:51:54.677Z,57.26
2022-09-07T06:57:10.735Z,58.39
2022-09-07T06:59:38.212Z,59.28
2022-09-07T07:02:06.311Z,60.37
2022-09-07T07:04:37.774Z,61.77
2022-09-07T07:07:10.701Z,63.03
2022-09-07T07:09:37.438Z,63.67
2022-09-07T07:12:03.987Z,64.10
2022-09-07T07:14:33.808Z,65.46
2022-09-07T07:17:01.874Z,65.52
2022-09-07T07:19:28.479Z,66.46
2022-09-07T07:22:29.658Z,66.60
2022-09-07T07:24:42.561Z,67.46
2022-09-07T07:27:08.972Z,67.58
2022-09-07T07:29:35.502Z,68.03
2022-09-07T07:32:02.142Z,67.88
2022-09-07T07:34:29.170Z,68.26
2022-09-07T07:36:55.663Z,68.62
2022-09-07T07:42:08.973Z,67.51
2022-09-07T07:44:35.477Z,67.17
2022-09-07T07:47:02.861Z,66.70
2022-09-07T07:49:29.296Z,66.76
2022-09-07T07:54:43.249Z,64.40
2022-09-07T07:57:10.770Z,63.01
2022-09-07T07:59:37.593Z,61.49
2022-09-07T08:02:06.168Z,60.47
2022-09-07T08:04:35.742Z,60.80
2022-09-07T08:07:09.151Z,59.69
2022-09-07T08:09:37.256Z,59.62
2022-09-07T08:12:03.975Z,58.08
2022-09-07T08:14:30.385Z,56.63
2022-09-07T08:16:56.812Z,56.39
2022-09-07T08:19:23.409Z,55.89
2022-09-07T08:21:49.840Z,54.22
2022-09-07T08:24:16.273Z,54.28
2022-09-07T08:26:42.671Z,53.30
2022-09-07T08:29:09.065Z,52.86
2022-09-07T08:31:35.510Z,53.14
2022-09-07T08:34:02.094Z,52.84
2022-09-07T08:36:28.718Z,51.79
2022-09-07T08:38:55.180Z,51.27
2022-09-07T08:41:31.944Z,50.46
2022-09-07T08:44:06.434Z,51.21
2022-09-07T08:46:57.393Z,50.44
2022-09-07T08:49:33.678Z,50.31
2022-09-07T08:52:16.612Z,49.64
2022-09-07T08:54:50.074Z,50.21
2022-09-07T08:57:25.739Z,50.44
2022-09-07T09:00:04.706Z,50.62
2022-09-07T09:02:34.903Z,50.09
2022-09-07T09:05:18.266Z,49.99
2022-09-07T09:08:10.541Z,48.85
2022-09-07T09:10:53.454Z,47.60
2022-09-07T09:13:42.854Z,48.15
2022-09-07T09:17:01.794Z,48.23
2022-09-07T09:20:06.697Z,48.62
2022-09-07T09:22:34.632Z,49.35
2022-09-07T09:25:22.530Z,49.38
2022-09-07T09:27:49.520Z,49.80
2022-09-07T09:30:21.763Z,49.32
2022-09-07T09:33:11.354Z,48.60
2022-09-07T09:35:39.334Z,48.08
2022-09-07T09:38:29.874Z,47.02
2022-09-07T09:40:59.189Z,46.75
2022-09-07T09:43:33.932Z,47.64
2022-09-07T09:46:16.929Z,45.81
2022-09-07T09:48:43.610Z,46.56
2022-09-07T09:54:07.623Z,45.28
2022-09-07T09:56:43.668Z,45.98
2022-09-07T10:05:25.838Z,45.36
2022-09-07T10:07:53.408Z,46.12
2022-09-07T10:10:19.920Z,45.53
2022-09-07T10:12:46.648Z,45.33
2022-09-07T10:15:50.111Z,45.11
2022-09-07T10:18:27.228Z,44.18
2022-09-07T10:21:12.080Z,45.69
2022-09-07T10:23:38.719Z,45.64
2022-09-07T10:26:27.398Z,43.85
2022-09-07T10:29:36.363Z,44.25
2022-09-07T10:32:26.848Z,45.19
2022-09-07T10:35:15.457Z,44.26
2022-09-07T10:38:15.796Z,44.06
2022-09-07T10:41:07.287Z,44.90
2022-09-07T10:43:39.863Z,45.17
2022-09-07T10:46:55.875Z,46.45
2022-09-07T10:49:33.832Z,45.65
2022-09-07T10:52:12.745Z,44.88
2022-09-07T10:55:04.205Z,44.41
2022-09-07T10:58:15.879Z,44.78
2022-09-07T11:01:05.229Z,44.38
2022-09-07T11:03:41.074Z,45.25
2022-09-07T11:06:22.566Z,44.95
2022-09-07T11:09:20.764Z,45.41
2022-09-07T11:12:06.470Z,46.89
2022-09-07T11:14:41.258Z,45.90
2022-09-07T11:17:52.765Z,45.17
2022-09-07T11:20:32.082Z,46.10
2022-09-07T11:23:14.582Z,46.75
2022-09-07T11:25:53.929Z,46.92
2022-09-07T11:28:41.302Z,47.22
2022-09-07T11:31:17.599Z,46.03
2022-09-07T11:36:50.034Z,46.05
2022-09-07T11:39:23.380Z,46.08
2022-09-07T11:42:01.002Z,45.37
2022-09-07T11:44:49.801Z,44.48
2022-09-07T11:47:33.861Z,43.76
2022-09-07T11:50:00.338Z,42.28
2022-09-07T11:52:56.420Z,42.90
2022-09-07T11:55:27.336Z,44.97
2022-09-07T11:58:24.657Z,43.61
2022-09-07T12:01:06.422Z,44.62
2022-09-07T12:04:15.332Z,43.85
2022-09-07T12:07:09.562Z,42.77
2022-09-07T12:09:54.649Z,42.68
2022-09-07T12:12:40.901Z,43.63
2022-09-07T12:15:28.658Z,41.91
2022-09-07T12:18:03.984Z,41.51
2022-09-07T12:20:44.551Z,41.59
2022-09-07T12:23:16.647Z,41.70
2022-09-07T12:25:45.533Z,42.45
2022-09-07T12:28:35.066Z,42.22
2022-09-07T12:31:06.916Z,42.33
2022-09-07T12:33:38.460Z,41.39
2022-09-07T12:36:26.876Z,40.99
2022-09-07T12:39:25.069Z,40.76
2022-09-07T12:45:30.887Z,40.34
2022-09-07T12:47:59.396Z,40.94
2022-09-07T12:50:38.188Z,41.53
2022-09-07T12:53:33.415Z,40.72
2022-09-07T12:56:36.273Z,41.50
2022-09-07T12:59:21.671Z,41.14
2022-09-07T13:01:54.293Z,41.31
2022-09-07T13:04:31.109Z,41.99
2022-09-07T13:07:35.262Z,42.53
2022-09-07T13:10:04.408Z,43.59
2022-09-07T13:12:54.763Z,43.16
2022-09-07T13:15:43.561Z,43.37
2022-09-07T13:18:36.033Z,43.40
2022-09-07T13:21:08.679Z,43.52
2022-09-07T13:23:39.709Z,43.62
2022-09-07T13:26:27.051Z,42.62
2022-09-07T13:28:57.900Z,42.66
2022-09-07T13:31:43.256Z,42.61
2022-09-07T13:34:34.461Z,41.83
2022-09-07T13:37:03.254Z,41.71
2022-09-07T13:39:43.602Z,42.02
2022-09-07T13:42:17.734Z,42.26
2022-09-07T13:44:53.136Z,42.02
2022-09-07T13:47:31.637Z,42.38
2022-09-07T13:50:18.321Z,42.16
2022-09-07T13:53:22.135Z,42.13
2022-09-07T13:56:11.452Z,42.01
2022-09-07T13:58:41.843Z,41.45
2022-09-07T14:01:18.891Z,41.62
2022-09-07T14:03:51.249Z,41.76
2022-09-07T14:06:20.407Z,41.96
2022-09-07T14:08:49.282Z,42.38
2022-09-07T14:11:25.450Z,42.96
2022-09-07T14:14:09.839Z,43.05
2022-09-07T14:16:37.053Z,43.40
2022-09-07T14:19:10.726Z,43.71
2022-09-07T14:21:37.353Z,43.65
2022-09-07T14:24:18.861Z,43.98
2022-09-07T14:26:47.883Z,44.15
2022-09-07T14:29:26.558Z,44.48
2022-09-07T14:31:54.301Z,44.57
2022-09-07T14:34:24.485Z,44.49
2022-09-07T14:36:51.972Z,44.46
2022-09-07T14:39:22.013Z,44.51
2022-09-07T14:41:49.232Z,44.72
2022-09-07T14:44:34.126Z,45.12
2022-09-07T14:47:05.890Z,45.09
2022-09-07T14:49:32.540Z,44.67
2022-09-07T14:52:00.778Z,44.79
2022-09-07T14:54:31.635Z,45.08
2022-09-07T14:57:05.488Z,44.86
2022-09-07T14:59:45.962Z,44.79
2022-09-07T15:02:18.436Z,44.66
2022-09-07T15:05:09.739Z,43.85
2022-09-07T15:07:45.924Z,43.82
2022-09-07T15:10:21.731Z,44.19
2022-09-07T15:12:54.407Z,44.47
2022-09-07T15:15:27.244Z,44.56
2022-09-07T15:17:55.784Z,45.18
2022-09-07T15:20:43.980Z,45.51
2022-09-07T15:23:13.528Z,45.24
2022-09-07T15:25:43.302Z,45.73
2022-09-07T15:29:08.090Z,45.67
2022-09-07T15:33:57.666Z,46.59
2022-09-07T15:36:24.158Z,46.68
2022-09-07T15:39:05.818Z,46.60
2022-09-07T15:41:32.600Z,46.59
2022-09-07T15:43:59.273Z,47.17
2022-09-07T15:46:26.341Z,46.86
2022-09-07T15:48:54.954Z,46.96
2022-09-07T15:54:14.031Z,47.67
2022-09-07T15:56:42.690Z,47.60
2022-09-07T15:59:10.694Z,47.68
2022-09-07T16:01:54.795Z,47.54
2022-09-07T16:04:24.018Z,47.65
2022-09-07T16:06:50.675Z,47.59
2022-09-07T16:09:17.441Z,47.24
2022-09-07T16:11:44.344Z,48.16
2022-09-07T16:14:12.325Z,48.45
2022-09-07T16:19:25.996Z,48.54
2022-09-07T16:21:52.673Z,48.14
2022-09-07T16:24:19.099Z,48.28
2022-09-07T16:26:45.601Z,48.85
2022-09-07T16:29:12.054Z,49.30
2022-09-07T16:31:38.884Z,49.65
2022-09-07T16:34:25.006Z,51.19
2022-09-07T16:36:52.019Z,49.00
2022-09-07T16:39:19.252Z,49.48
2022-09-07T16:41:45.783Z,49.83
2022-09-07T16:44:12.256Z,49.77
2022-09-07T16:46:38.915Z,50.07
2022-09-07T16:49:07.145Z,50.34
2022-09-07T16:51:34.502Z,50.54
2022-09-07T16:54:01.054Z,50.80
2022-09-07T16:56:30.360Z,50.86
2022-09-07T16:59:01.484Z,50.74
2022-09-07T17:01:31.494Z,50.66
2022-09-07T17:03:58.994Z,51.14
2022-09-07T17:06:26.909Z,51.62
2022-09-07T17:08:53.381Z,51.93
2022-09-07T17:11:23.063Z,52.14
2022-09-07T17:13:50.958Z,52.89
2022-09-07T17:16:23.327Z,53.71
2022-09-07T17:21:38.667Z,54.30
2022-09-07T17:24:07.606Z,54.50
2022-09-07T17:26:34.050Z,53.64
2022-09-07T17:29:01.169Z,53.57
2022-09-07T17:34:20.578Z,53.19
2022-09-07T17:36:47.453Z,53.53
2022-09-07T17:39:17.550Z,54.29
2022-09-07T17:41:46.515Z,54.16
2022-09-07T17:44:12.900Z,54.07
2022-09-07T17:46:39.473Z,57.39
2022-09-07T17:49:10.016Z,57.92
2022-09-07T17:51:36.444Z,58.48
2022-09-07T17:54:13.198Z,59.14
2022-09-07T17:56:41.086Z,59.25
2022-09-07T18:01:55.296Z,59.91
2022-09-07T18:04:22.325Z,60.06
2022-09-07T18:06:48.879Z,59.92
2022-09-07T18:09:15.949Z,59.62
2022-09-07T18:11:46.890Z,59.83
2022-09-07T18:14:15.057Z,59.91
2022-09-07T18:16:42.513Z,60.19
2022-09-07T18:19:11.660Z,60.21
2022-09-07T18:21:41.006Z,60.85
2022-09-07T18:24:13.574Z,60.74
2022-09-07T18:26:41.146Z,61.16
2022-09-07T18:29:26.019Z,61.22
2022-09-07T18:31:54.493Z,61.91
2022-09-07T18:34:21.097Z,62.48
2022-09-07T18:36:47.989Z,63.60
2022-09-07T18:39:14.593Z,64.18
2022-09-07T18:41:41.959Z,64.49
2022-09-07T18:45:27.299Z,64.04
2022-09-07T18:46:55.334Z,63.50
2022-09-07T18:49:21.758Z,64.33
2022-09-07T18:54:34.650Z,63.75
2022-09-07T18:57:01.141Z,64.36
2022-09-07T18:59:28.088Z,65.39
2022-09-07T19:02:01.310Z,65.18
2022-09-07T19:07:17.515Z,65.18
2022-09-07T19:09:43.930Z,65.30
2022-09-07T19:12:10.411Z,65.14
2022-09-07T19:14:36.870Z,65.87
2022-09-07T19:17:03.526Z,66.29
2022-09-07T19:19:30.303Z,65.45
2022-09-07T19:21:58.384Z,65.05
2022-09-07T19:24:25.709Z,64.60
2022-09-07T19:26:53.919Z,64.10
2022-09-07T19:29:23.697Z,64.80
2022-09-07T19:32:05.551Z,64.96
2022-09-07T19:34:37.389Z,64.00
2022-09-07T19:37:05.611Z,63.57
2022-09-07T19:39:33.138Z,62.57
2022-09-07T19:41:59.903Z,62.54
2022-09-07T19:44:26.445Z,62.30
2022-09-07T19:46:52.868Z,62.90
2022-09-07T19:49:20.376Z,62.54
2022-09-07T19:51:49.359Z,62.48
2022-09-07T19:54:15.770Z,62.61
2022-09-07T19:56:42.791Z,62.29
2022-09-07T19:59:09.662Z,62.27
2022-09-07T20:01:37.768Z,62.19
2022-09-07T20:04:07.685Z,62.40
2022-09-07T20:06:37.040Z,63.20
2022-09-07T20:09:04.518Z,63.67
2022-09-07T20:11:32.204Z,63.49
2022-09-07T20:13:58.855Z,63.25
2022-09-07T20:16:26.202Z,63.96
2022-09-07T20:18:52.992Z,65.11
2022-09-07T20:21:24.347Z,65.72
2022-09-07T20:23:51.150Z,66.65
2022-09-07T20:26:20.330Z,66.12
2022-09-07T20:29:01.964Z,65.68
2022-09-07T20:31:39.210Z,65.60
2022-09-07T20:34:05.947Z,65.97
2022-09-07T20:36:32.384Z,65.88
2022-09-07T20:38:58.845Z,65.72
2022-09-07T20:41:28.740Z,65.88
2022-09-07T20:43:58.227Z,65.16
2022-09-07T20:46:28.318Z,65.15
2022-09-07T20:48:55.682Z,65.81
2022-09-07T20:51:22.973Z,66.07
2022-09-07T20:53:50.166Z,66.23
2022-09-07T20:56:21.481Z,66.53
2022-09-07T20:58:49.573Z,66.57
2022-09-07T21:01:17.966Z,66.92
2022-09-07T21:03:50.207Z,67.15
2022-09-07T21:06:17.678Z,67.02
2022-09-07T21:08:45.470Z,66.22
2022-09-07T21:11:27.195Z,67.06
2022-09-07T21:13:59.384Z,66.99
2022-09-07T21:16:26.817Z,67.17
2022-09-07T21:18:59.527Z,67.18
2022-09-07T21:21:27.239Z,67.35
2022-09-07T21:23:59.008Z,67.89
2022-09-07T21:26:30.450Z,67.19
2022-09-07T21:28:59.104Z,67.32
2022-09-07T21:31:26.490Z,66.95
2022-09-07T21:33:54.824Z,68.33
2022-09-07T21:36:21.759Z,69.03
2022-09-07T21:38:48.461Z,68.85
2022-09-07T21:41:17.232Z,68.53
2022-09-07T21:43:43.950Z,68.11
2022-09-07T21:46:16.456Z,68.35
2022-09-07T21:48:43.515Z,69.06
2022-09-07T21:51:09.991Z,67.93
2022-09-07T21:53:36.411Z,68.55
2022-09-07T21:56:05.140Z,68.28
2022-09-07T21:58:33.212Z,68.43
2022-09-07T22:01:03.695Z,68.77
2022-09-07T22:03:30.337Z,68.75
2022-09-07T22:06:01.550Z,67.95
2022-09-07T22:08:28.008Z,67.84
2022-09-07T22:10:54.415Z,67.74
2022-09-07T22:13:20.990Z,67.55
2022-09-07T22:15:47.977Z,67.48
2022-09-07T22:18:14.430Z,67.93
2022-09-07T22:20:40.994Z,68.21
2022-09-07T22:23:07.393Z,68.50
2022-09-07T22:25:34.747Z,68.34
2022-09-07T22:28:01.461Z,69.46
2022-09-07T22:30:28.062Z,70.47
2022-09-07T22:32:54.651Z,70.03
2022-09-07T22:35:23.286Z,69.89
2022-09-07T22:37:49.749Z,69.35
2022-09-07T22:40:16.341Z,69.36
2022-09-07T22:42:42.789Z,69.60
2022-09-07T22:45:10.006Z,69.58
2022-09-07T22:47:36.622Z,69.95
2022-09-07T22:50:03.230Z,70.12
2022-09-07T22:52:29.662Z,69.82
2022-09-07T22:54:56.101Z,69.71
2022-09-07T22:57:23.303Z,67.99
2022-09-07T22:59:49.801Z,67.48
2022-09-07T23:02:16.174Z,66.89
2022-09-07T23:04:42.671Z,67.07
2022-09-07T23:07:09.359Z,67.91
2022-09-07T23:09:36.018Z,67.23
2022-09-07T23:12:02.695Z,67.85
2022-09-07T23:14:29.271Z,67.94
2022-09-07T23:16:55.629Z,69.80
2022-09-07T23:19:22.213Z,70.18
2022-09-07T23:21:48.871Z,71.01
2022-09-07T23:24:17.735Z,70.95
2022-09-07T23:26:44.544Z,70.59
2022-09-07T23:29:12.654Z,69.72
2022-09-07T23:31:40.134Z,70.02
2022-09-07T23:34:07.805Z,69.31
2022-09-07T23:36:34.253Z,70.07
2022-09-07T23:39:01.131Z,70.43
2022-09-07T23:41:27.827Z,71.65
2022-09-07T23:43:55.015Z,73.62
2022-09-07T23:46:22.169Z,74.36
2022-09-07T23:48:49.101Z,75.15
2022-09-07T23:51:19.911Z,75.28
2022-09-07T23:53:49.477Z,75.30
2022-09-07T23:56:15.939Z,77.46
2022-09-07T23:58:42.329Z,77.41
